Decoded Metar for KOKK (KOKOMO in IN, USA) (IATA:OKK) | Meteo·Mobile Aviation Weather
aviador You're here:

KOKK Decoded Metar

KOKOMO in IN, USA
Report Time2018-12-17 14:56:00
UTC Time2018-12-17 15:05:39
Flight Rules vfr VFR
Wind300° at 11 kt
W.Decomp.*RWY 32: 10.5 kt HW 3.4 kt LCW
RWY 23: 3.4 kt HW 10.5 kt RCW
W.Rank300° ranks 14
Current wind is above 300° avg. (10.0)
Visibility9999 m
Phenomena:N/A
Clouds:N/A
Expected CloudBase > 1,200 ft AGL from Temp-Dew spread
CeilingNone
Temp02°C (ISA -11)
Dew Point-1°C (81% RH)
AAT-4.1°C
QNH1021 hPa
Density Alt-738 ft
Elevation830 ft
Report Wrong Elevation
Raw Report
KOKK 171456Z AUTO 30011KT 10SM CLR 02/M01 A3016 RMK AO2 SLP222
T00221006 53016 FZRANO=

Extra information for KOKK:More info

Metar Taf Metar & Taf Last 4 Metars F.Rules Stats Wind Profile Meteogram Temp Stats Airport Information Weather charts Add Link Nearby VenuesMetar ALERT Operation Metar Decoded Social comments

AIRNAV info for KOKK